Nearby METAR Reports

 

KCPC - Whiteville, North Carolina, USA
Distance from station: NNE 17mi, 28km
Updated: 08/17/2019 6:55pm
Partly cloudy
Partly cloudy
 Wind from E
Wind: E 5 mph , 7 km/h
Temperature: 79°F , 26°C
Dew Point: 75°F , 24°C
Humidity: 89%
Barometer: 29.97 inHg , 1014.9 hPa
Clouds: Partly cloudy
Visibility: 10 miles , 16 km
Cloud details: Partly cloudy 8000 ft
2019/08/17 22:55 KCPC 172255Z AUTO 10004KT 10SM SCT080 26/24 A2997 RMK AO2 T02570239
KCRE - North Myrtle Bea, South Carolina, USA
Distance from station: SSE 19mi, 31km
Updated: 08/17/2019 6:53pm
Overcast
Overcast
 Wind from SSE
Wind: SSE 9 mph , 15 km/h
Temperature: 81°F , 27°C
Heat Index: 87°F , 31°C
Dew Point: 75°F , 24°C
Humidity: 84%
Barometer: 29.96 inHg , 1014.6 hPa
Clouds: Overcast
Visibility: 10 miles , 16 km
Cloud details: Partly cloudy 1500 ft
Mostly cloudy 2300 ft
Overcast 5000 ft
2019/08/17 22:53 KCRE 172253Z 16008KT 10SM SCT015 BKN023 OVC050 27/24 A2996 RMK AO1 RAB26E38 SLP147 P0000 T02720244
 
KHYW - Conway-Horry Cty, South Carolina, USA
Distance from station: SW 22mi, 35km
Updated: 08/17/2019 6:55pm
Nearby thunderstorm, Mostly cloudy
Nearby thunderstorm, Mostly cloudy
 Wind from ENE
Wind: ENE 3 mph , 6 km/h
Temperature: 77°F , 25°C
Dew Point: 77°F , 25°C
Humidity: 100%
Barometer: 29.95 inHg , 1014.2 hPa
Summary: Nearby Thunderstorm
Clouds: Mostly cloudy
Visibility: 7 miles , 11 km
Cloud details: Partly cloudy 1100 ft
Partly cloudy 1600 ft
Mostly cloudy 12000 ft
2019/08/17 22:55 KHYW 172255Z AUTO 07003KT 7SM VCTS SCT011 SCT016 BKN120 25/25 A2995 RMK AO2 LTG DSNT E AND S
KMAO - Marion, South Carolina, USA
Distance from station: WNW 28mi, 45km
Updated: 08/17/2019 6:55pm
Partly cloudy
Partly cloudy
 Wind from N
Wind: N 5 mph , 7 km/h
Temperature: 75°F , 24°C
Dew Point: 73°F , 23°C
Humidity: 94%
Barometer: 29.97 inHg , 1014.9 hPa
Clouds: Partly cloudy
Visibility: 10 miles , 16 km
Cloud details: Partly cloudy 2300 ft
2019/08/17 22:55 KMAO 172255Z AUTO 36004KT 10SM SCT023 24/23 A2997 RMK AO2
 
KMYR - Myrtle Beach, South Carolina, USA
Distance from station: S 28mi, 45km
Updated: 08/17/2019 6:56pm
Light rain, Overcast
Light rain, Overcast
 Wind from SW
Wind: SW 3 mph , 6 km/h
Temperature: 79°F , 26°C
Dew Point: 77°F , 25°C
Humidity: 94%
Barometer: 29.96 inHg , 1014.6 hPa
Summary: Light rain
Clouds: Overcast
Visibility: 10 miles , 16 km
Cloud details: Mostly cloudy 1600 ft
Overcast 2800 ft
2019/08/17 22:56 KMYR 172256Z 23003KT 10SM -RA BKN016 OVC028 26/25 A2996 RMK AO2 RAB16 SLP146 P0001 T02610250
KLBT - Lumberton, North Carolina, USA
Distance from station: NNW 39mi, 62km
Updated: 03/28/2019 9:55am
NOT Current

 
2019/03/28 13:55 KLBT 281355Z MKT MSM M M M M A0000 M M RMK TEST
 
KSUT - Southport, North Carolina, USA
Distance from station: E 46mi, 74km
Updated: 08/17/2019 6:55pm
Rain, Overcast
Rain, Overcast
 Wind from calm
Wind: Calm
Temperature: 77°F , 25°C
Dew Point: 75°F , 24°C
Humidity: 94%
Barometer: 30.00 inHg , 1015.9 hPa
Summary: Rain
Clouds: Overcast
Visibility: 1 3/4 miles , 2.8 km
Cloud details: Partly cloudy 1100 ft
Mostly cloudy 1600 ft
Overcast 4300 ft
2019/08/17 22:55 KSUT 172255Z AUTO 00000KT 1 3/4SM RA SCT011 BKN016 OVC043 25/24 A3000 RMK AO2 P0026 T02470241
KFLO - Florence, South Carolina, USA
Distance from station: W 50mi, 81km
Updated: 08/17/2019 6:53pm
Clear
Clear
 Wind from ENE
Wind: ENE 8 mph , 13 km/h
Temperature: 79°F , 26°C
Dew Point: 73°F , 23°C
Humidity: 84%
Barometer: 29.97 inHg , 1014.9 hPa
Clouds: Clear
Visibility: 10 miles , 16 km
2019/08/17 22:53 KFLO 172253Z 07007KT 10SM CLR 26/23 A2997 RMK AO2 SLP146 T02610233